Time;durP1;ratioP1;P1;durP2;ratioP2;P2;SDS_P1;SDS_P2;PMS_P1;PMS_P2;Temp;Humidity;BMP_temperature;BMP_pressure;BME280_temperature;BME280_humidity;BME280_pressure;Samples;Min_cycle;Max_cycle;Signal;HPM_P1;HPM_P2
2024/01/03 00:00:30;;;;;;;133.23;13.73;;;;;;;2.96;95.00;96748.19;4856044;29;20203;-68
2024/01/03 00:02:58;;;;;;;139.37;12.63;;;;;;;2.69;95.69;96746.19;4853936;29;20235;-65
2024/01/03 00:05:36;;;;;;;67.30;12.50;;;;;;;2.42;96.91;96719.44;4856122;29;20200;-63
2024/01/03 00:08:34;;;;;;;184.90;13.27;;;;;;;2.55;97.95;96745.63;4854112;29;20547;-62
2024/01/03 00:11:01;;;;;;;70.37;10.93;;;;;;;2.56;97.93;96737.06;4854902;29;20807;-65
2024/01/03 00:13:38;;;;;;;230.43;16.10;;;;;;;2.44;97.28;96739.84;4856007;29;20327;-63
2024/01/03 00:16:06;;;;;;;37.20;9.80;;;;;;;2.52;97.75;96727.75;4855250;29;20757;-63
2024/01/03 00:18:41;;;;;;;48.33;10.03;;;;;;;2.67;97.08;96732.59;4856283;29;20331;-63
2024/01/03 00:21:10;;;;;;;67.57;10.87;;;;;;;2.75;96.75;96738.38;4855178;29;20735;-64
2024/01/03 00:23:46;;;;;;;51.97;15.10;;;;;;;2.84;96.40;96730.53;4855715;29;20684;-63
2024/01/03 00:26:13;;;;;;;43.93;11.50;;;;;;;2.80;96.00;96718.69;4855464;29;20200;-62
2024/01/03 00:28:41;;;;;;;42.53;13.83;;;;;;;2.69;96.50;96683.97;4855523;29;20223;-63
2024/01/03 00:31:43;;;;;;;60.00;10.90;;;;;;;2.96;95.97;96714.09;4856077;29;20610;-66
2024/01/03 00:34:22;;;;;;;51.40;10.80;;;;;;;3.32;95.56;96730.34;4855072;29;20260;-62
2024/01/03 00:36:53;;;;;;;112.53;36.20;;;;;;;3.15;94.46;96716.19;4855467;29;20200;-63
2024/01/03 00:39:27;;;;;;;41.43;15.43;;;;;;;3.05;94.55;96729.25;4854393;29;20715;-64
2024/01/03 00:41:54;;;;;;;64.47;12.03;;;;;;;3.00;94.93;96736.16;4855100;29;20231;-63
2024/01/03 00:44:22;;;;;;;28.47;10.87;;;;;;;3.08;94.82;96739.41;4854555;29;20201;-62
2024/01/03 00:46:55;;;;;;;18.63;9.60;;;;;;;3.30;94.93;96741.44;4854780;29;20200;-63
2024/01/03 00:49:24;;;;;;;32.90;15.70;;;;;;;3.66;94.16;96754.28;4855606;29;20577;-64
2024/01/03 00:51:53;;;;;;;26.17;12.50;;;;;;;3.73;93.22;96755.84;4853685;29;20223;-63
2024/01/03 00:54:22;;;;;;;32.43;11.30;;;;;;;3.69;92.81;96746.56;4855017;29;20253;-64
2024/01/03 00:56:50;;;;;;;20.03;9.97;;;;;;;3.72;94.04;96743.91;4853992;29;20695;-65
2024/01/03 00:59:18;;;;;;;20.27;10.50;;;;;;;3.96;93.25;96745.84;4853351;29;20197;-61
2024/01/03 01:01:47;;;;;;;26.60;10.80;;;;;;;3.85;92.72;96743.56;4855395;29;20238;-65
2024/01/03 01:04:15;;;;;;;28.87;11.23;;;;;;;4.07;93.16;96736.19;4854297;29;20219;-67
2024/01/03 01:06:42;;;;;;;60.87;12.93;;;;;;;4.23;92.70;96737.47;4855133;29;20665;-63
2024/01/03 01:09:10;;;;;;;53.07;12.50;;;;;;;4.05;91.98;96732.84;4852538;29;20243;-66
2024/01/03 01:11:37;;;;;;;38.43;13.73;;;;;;;3.82;93.23;96699.25;4854980;29;20231;-65
2024/01/03 01:14:04;;;;;;;60.33;11.63;;;;;;;3.98;92.53;96724.47;4854752;29;20255;-64
2024/01/03 01:16:31;;;;;;;28.67;10.57;;;;;;;3.98;92.90;96723.59;4854432;29;20320;-63
2024/01/03 01:18:58;;;;;;;41.80;10.07;;;;;;;3.57;92.40;96698.19;4855508;29;20213;-61
2024/01/03 01:21:26;;;;;;;20.40;9.03;;;;;;;3.73;92.53;96725.13;4853957;29;20323;-64
2024/01/03 01:23:53;;;;;;;23.07;9.07;;;;;;;3.32;93.17;96697.91;4854918;29;20204;-64
2024/01/03 01:26:20;;;;;;;18.30;9.77;;;;;;;3.53;93.83;96699.13;4854331;29;20213;-65
2024/01/03 01:28:47;;;;;;;55.00;9.43;;;;;;;3.51;93.78;96701.72;4854407;29;20197;-64
2024/01/03 01:31:14;;;;;;;15.10;8.20;;;;;;;3.65;94.16;96703.94;4854555;29;20214;-67
2024/01/03 01:33:41;;;;;;;37.33;9.90;;;;;;;3.82;93.20;96712.06;4852872;29;20264;-67
2024/01/03 01:36:09;;;;;;;18.23;8.00;;;;;;;4.01;93.38;96715.88;4854765;29;20204;-65
2024/01/03 01:38:36;;;;;;;21.03;8.77;;;;;;;4.10;92.69;96731.81;4853971;29;20280;-65
2024/01/03 01:41:03;;;;;;;16.83;8.37;;;;;;;4.17;92.47;96729.97;4853449;29;20571;-62
2024/01/03 01:43:30;;;;;;;33.70;9.00;;;;;;;4.12;92.22;96724.94;4852577;29;20270;-68
2024/01/03 01:45:57;;;;;;;17.73;7.90;;;;;;;4.10;93.11;96725.88;4854222;29;20287;-66
2024/01/03 01:48:25;;;;;;;26.50;10.27;;;;;;;4.25;92.74;96715.22;4852972;29;20240;-63
2024/01/03 01:50:53;;;;;;;194.03;48.87;;;;;;;4.24;92.28;96712.72;4884991;29;20310;-65
2024/01/03 01:53:20;;;;;;;116.43;32.63;;;;;;;4.19;91.93;96715.38;4891693;29;21129;-66
2024/01/03 01:55:48;;;;;;;247.57;89.73;;;;;;;4.21;91.57;96702.53;4890669;29;20577;-64
2024/01/03 01:58:15;;;;;;;179.70;48.47;;;;;;;4.16;92.13;96697.53;4890428;29;20213;-62
2024/01/03 02:00:42;;;;;;;72.17;12.70;;;;;;;3.98;91.83;96710.81;4889381;29;20246;-67
2024/01/03 02:03:10;;;;;;;103.13;10.87;;;;;;;3.56;93.70;96714.44;4905352;29;20315;-63
2024/01/03 02:05:38;;;;;;;20.53;9.80;;;;;;;3.60;94.97;96686.16;4891074;29;20231;-63
2024/01/03 02:08:09;;;;;;;30.20;9.73;;;;;;;3.98;94.13;96701.41;4889762;29;20235;-68
2024/01/03 02:10:37;;;;;;;36.70;14.67;;;;;;;4.08;94.15;96702.03;4891267;29;20725;-66
2024/01/03 02:13:04;;;;;;;34.53;9.87;;;;;;;4.09;93.70;96699.41;4890420;29;20263;-67
2024/01/03 02:15:31;;;;;;;26.30;10.00;;;;;;;4.22;93.51;96688.84;4891355;29;20231;-65
2024/01/03 02:18:21;;;;;;;43.70;9.03;;;;;;;4.25;93.21;96702.41;4880559;29;20211;-69
2024/01/03 02:20:51;;;;;;;37.80;8.67;;;;;;;4.00;93.25;96696.22;4864013;29;20663;-67
2024/01/03 02:23:18;;;;;;;16.50;8.37;;;;;;;3.96;94.17;96699.75;4864852;29;20303;-65
2024/01/03 02:25:46;;;;;;;71.27;11.50;;;;;;;3.98;95.20;96700.56;4869863;29;20629;-64
2024/01/03 02:28:13;;;;;;;35.77;9.83;;;;;;;4.11;95.22;96687.41;4857099;29;20197;-66
2024/01/03 02:30:44;;;;;;;39.50;8.93;;;;;;;4.31;95.00;96684.31;4853737;29;20660;-68
2024/01/03 02:33:12;;;;;;;69.90;9.43;;;;;;;4.26;94.96;96681.03;4869422;29;20299;-68
2024/01/03 02:35:40;;;;;;;56.70;9.83;;;;;;;4.27;94.05;96692.94;4863064;29;20299;-63
2024/01/03 02:38:07;;;;;;;19.53;8.97;;;;;;;4.24;95.30;96685.38;4861971;29;20235;-65
2024/01/03 02:40:37;;;;;;;122.67;11.03;;;;;;;4.10;94.16;96680.59;4861885;29;20287;-64
2024/01/03 02:43:05;;;;;;;37.40;8.40;;;;;;;4.08;95.25;96676.41;4866327;29;20232;-68
2024/01/03 02:45:32;;;;;;;98.63;10.13;;;;;;;4.25;94.06;96684.47;4872767;29;20219;-68
2024/01/03 02:47:59;;;;;;;27.10;8.13;;;;;;;3.47;94.66;96561.06;4870120;29;20685;-68
2024/01/03 02:50:27;;;;;;;90.17;9.50;;;;;;;4.40;94.00;96688.34;4872188;29;20211;-64
2024/01/03 02:52:54;;;;;;;24.83;7.90;;;;;;;4.38;93.87;96682.41;4871507;29;20204;-64
2024/01/03 02:55:21;;;;;;;45.07;8.80;;;;;;;4.36;93.44;96674.78;4871531;29;20658;-65
2024/01/03 02:57:48;;;;;;;87.83;11.10;;;;;;;3.98;94.52;96698.00;4872019;29;20276;-66
2024/01/03 03:00:16;;;;;;;70.23;10.80;;;;;;;3.96;94.91;96686.94;4871398;29;20227;-67
2024/01/03 03:02:43;;;;;;;71.23;9.53;;;;;;;3.98;95.23;96685.19;4872016;29;20723;-67
2024/01/03 03:05:11;;;;;;;68.67;9.47;;;;;;;3.71;96.13;96670.53;4871494;29;20196;-68
2024/01/03 03:07:39;;;;;;;138.73;11.37;;;;;;;3.88;95.60;96668.38;4872051;29;20211;-67
2024/01/03 03:10:10;;;;;;;81.70;8.90;;;;;;;3.91;95.14;96681.97;4871518;29;20294;-66
2024/01/03 03:12:38;;;;;;;79.83;10.30;;;;;;;3.77;94.59;96660.97;4871682;29;20231;-67
2024/01/03 03:15:06;;;;;;;112.47;10.17;;;;;;;3.79;95.13;96660.94;4872066;29;20199;-66
2024/01/03 03:17:33;;;;;;;42.30;8.47;;;;;;;3.86;95.68;96662.44;4871482;29;20203;-68
2024/01/03 03:20:01;;;;;;;46.30;8.87;;;;;;;3.52;96.18;96669.31;4870880;29;20290;-67
2024/01/03 03:22:30;;;;;;;48.83;8.93;;;;;;;3.56;96.31;96653.00;4870181;29;20239;-69
2024/01/03 03:24:57;;;;;;;24.10;8.10;;;;;;;3.68;96.40;96655.25;4872417;29;20195;-69
2024/01/03 03:27:24;;;;;;;36.27;8.60;;;;;;;3.87;96.90;96646.22;4871363;29;20204;-67
2024/01/03 03:29:52;;;;;;;22.07;9.47;;;;;;;4.01;95.94;96664.63;4871540;29;20209;-67
2024/01/03 03:32:19;;;;;;;17.70;8.23;;;;;;;3.67;95.75;96605.75;4871703;29;20644;-65
2024/01/03 03:34:47;;;;;;;87.37;13.47;;;;;;;3.96;94.83;96646.81;4874834;29;20205;-65
2024/01/03 03:37:14;;;;;;;59.87;9.27;;;;;;;3.84;94.93;96664.22;4875574;29;20204;-64
2024/01/03 03:39:41;;;;;;;44.87;9.57;;;;;;;3.91;96.06;96664.03;4874633;29;20196;-65
2024/01/03 03:42:08;;;;;;;24.13;8.27;;;;;;;4.04;95.74;96659.41;4875247;29;20668;-66
2024/01/03 03:44:35;;;;;;;25.77;8.00;;;;;;;3.78;94.67;96654.13;4873376;29;20224;-66
2024/01/03 03:47:03;;;;;;;28.07;9.80;;;;;;;3.79;95.17;96648.16;4873401;29;20231;-65
2024/01/03 03:49:30;;;;;;;49.67;10.07;;;;;;;3.79;95.27;96658.38;4874681;29;20768;-64
2024/01/03 03:51:57;;;;;;;50.10;9.97;;;;;;;3.68;94.71;96655.25;4874373;29;20668;-66
2024/01/03 03:54:24;;;;;;;60.50;9.80;;;;;;;3.69;94.00;96649.25;4875063;29;20200;-65
2024/01/03 03:56:51;;;;;;;38.33;8.80;;;;;;;3.51;94.31;96636.91;4874259;29;20212;-68
2024/01/03 03:59:18;;;;;;;27.90;9.47;;;;;;;3.54;94.92;96641.94;4874938;29;20204;-65
2024/01/03 04:01:49;;;;;;;23.13;8.10;;;;;;;3.84;95.35;96624.09;4874169;29;20208;-67
2024/01/03 04:04:19;;;;;;;18.03;7.87;;;;;;;3.68;94.26;96647.56;4874586;29;20200;-68
2024/01/03 04:06:47;;;;;;;50.77;9.37;;;;;;;3.62;93.97;96648.56;4874620;29;20613;-67
2024/01/03 04:09:14;;;;;;;17.80;8.57;;;;;;;3.81;94.54;96654.88;4874161;29;20207;-65
2024/01/03 04:11:42;;;;;;;20.57;8.37;;;;;;;3.88;93.76;96647.88;4874702;29;20236;-64
2024/01/03 04:14:10;;;;;;;15.53;8.03;;;;;;;3.59;93.36;96660.56;4873656;29;20272;-67
2024/01/03 04:16:38;;;;;;;29.57;8.70;;;;;;;3.37;93.67;96641.50;4874711;29;20208;-64
2024/01/03 04:19:05;;;;;;;50.03;8.70;;;;;;;3.24;93.72;96662.28;4873840;29;20310;-67
2024/01/03 04:21:32;;;;;;;35.20;10.57;;;;;;;3.03;94.44;96649.16;4874167;29;20212;-65
2024/01/03 04:24:02;;;;;;;84.63;18.77;;;;;;;2.93;94.81;96650.22;4873812;29;20262;-62
2024/01/03 04:26:29;;;;;;;29.57;11.50;;;;;;;2.48;94.97;96575.38;4873758;29;20655;-64
2024/01/03 04:28:56;;;;;;;29.00;11.83;;;;;;;2.95;94.84;96633.13;4874459;29;20212;-64
2024/01/03 04:31:23;;;;;;;22.90;9.13;;;;;;;3.10;95.36;96630.22;4873467;29;20223;-64
2024/01/03 04:33:50;;;;;;;23.63;9.27;;;;;;;3.22;94.90;96630.78;4888820;29;20204;-63
2024/01/03 04:36:18;;;;;;;16.10;8.70;;;;;;;3.18;94.64;96616.38;4873602;29;20203;-66
2024/01/03 04:38:45;;;;;;;18.90;8.13;;;;;;;3.23;93.71;96632.47;4874085;29;20275;-64
2024/01/03 04:41:12;;;;;;;17.40;8.27;;;;;;;3.13;93.09;96623.31;4873744;29;20208;-62
2024/01/03 04:43:40;;;;;;;17.97;7.77;;;;;;;3.17;93.30;96627.47;4873213;29;20319;-63
2024/01/03 04:46:07;;;;;;;12.33;6.70;;;;;;;2.94;93.72;96629.75;4874014;29;20215;-62
2024/01/03 04:48:34;;;;;;;14.80;7.90;;;;;;;3.12;94.68;96631.03;4873281;29;20737;-61
2024/01/03 04:51:02;;;;;;;15.37;7.83;;;;;;;3.30;93.66;96605.00;4874239;29;20207;-62
2024/01/03 04:53:29;;;;;;;13.90;7.10;;;;;;;3.43;92.95;96629.41;4873364;29;20536;-68
2024/01/03 04:55:57;;;;;;;14.10;7.30;;;;;;;3.60;91.81;96631.56;4873947;29;20291;-67
2024/01/03 04:58:24;;;;;;;15.70;8.47;;;;;;;3.35;91.71;96633.88;4873360;29;20719;-64
2024/01/03 05:00:52;;;;;;;16.37;8.57;;;;;;;3.32;91.95;96604.97;4873244;29;20201;-66
2024/01/03 05:03:20;;;;;;;11.70;6.37;;;;;;;3.50;91.98;96614.75;4872263;29;20246;-69
2024/01/03 05:05:48;;;;;;;9.43;6.13;;;;;;;3.50;91.74;96614.75;4872024;29;20212;-66
2024/01/03 05:08:15;;;;;;;11.43;7.20;;;;;;;3.39;91.51;96616.72;4873693;29;20200;-68
2024/01/03 05:10:42;;;;;;;11.10;7.30;;;;;;;3.32;91.63;96620.34;4872701;29;20251;-65
2024/01/03 05:13:09;;;;;;;16.53;8.27;;;;;;;3.05;92.33;96617.53;4873170;29;20850;-63
2024/01/03 05:15:36;;;;;;;20.83;10.07;;;;;;;3.14;92.36;96622.44;4872856;29;20310;-66
2024/01/03 05:18:04;;;;;;;26.53;10.53;;;;;;;3.17;92.95;96630.03;4873081;29;20204;-64
2024/01/03 05:20:35;;;;;;;24.30;12.20;;;;;;;3.07;93.67;96618.34;4873511;29;20290;-66
2024/01/03 05:23:02;;;;;;;17.27;9.97;;;;;;;3.24;93.08;96618.78;4872239;29;20731;-62
2024/01/03 05:25:33;;;;;;;14.10;8.73;;;;;;;3.04;93.20;96603.06;4873204;29;20274;-66
2024/01/03 05:28:00;;;;;;;21.83;12.43;;;;;;;3.13;93.31;96630.97;4872411;29;20204;-65
2024/01/03 05:30:27;;;;;;;28.40;14.43;;;;;;;3.34;93.39;96624.50;4871597;29;20282;-68
2024/01/03 05:32:54;;;;;;;22.03;11.77;;;;;;;3.56;92.41;96609.47;4872201;29;20206;-65
2024/01/03 05:35:21;;;;;;;18.23;9.67;;;;;;;3.38;92.86;96620.19;4872646;29;20214;-66
2024/01/03 05:37:51;;;;;;;18.83;10.57;;;;;;;3.48;92.71;96634.44;4872591;29;20202;-64
2024/01/03 05:40:18;;;;;;;13.57;8.47;;;;;;;3.55;92.86;96612.91;4872170;29;20724;-62
2024/01/03 05:42:45;;;;;;;16.27;8.67;;;;;;;3.17;91.57;96555.84;4873464;29;20627;-63
2024/01/03 05:45:13;;;;;;;16.10;9.47;;;;;;;3.49;92.08;96619.03;4870559;29;20224;-64
2024/01/03 05:47:40;;;;;;;18.80;10.60;;;;;;;3.50;91.73;96625.84;4872871;29;20295;-63
2024/01/03 05:50:10;;;;;;;11.57;7.53;;;;;;;3.54;91.75;96642.81;4872566;29;20292;-66
2024/01/03 05:52:37;;;;;;;12.60;8.10;;;;;;;3.60;91.95;96647.75;4871385;29;20290;-63
2024/01/03 05:55:06;;;;;;;16.67;8.93;;;;;;;3.60;92.63;96652.03;4872308;29;20204;-63
2024/01/03 05:57:34;;;;;;;21.63;12.10;;;;;;;3.61;91.78;96635.78;4872290;29;20230;-68
2024/01/03 06:00:05;;;;;;;16.73;8.87;;;;;;;3.51;92.36;96626.66;4874085;29;20217;-67
2024/01/03 06:02:33;;;;;;;17.40;8.30;;;;;;;3.52;92.62;96628.34;4870980;29;20213;-67
2024/01/03 06:05:00;;;;;;;17.03;9.70;;;;;;;3.62;92.63;96629.78;4871295;29;20203;-68
2024/01/03 06:07:29;;;;;;;13.40;8.57;;;;;;;3.79;92.25;96617.41;4872584;29;20262;-67
2024/01/03 06:09:56;;;;;;;19.27;10.70;;;;;;;4.11;91.42;96643.00;4871833;29;20215;-67
2024/01/03 06:12:23;;;;;;;12.57;8.10;;;;;;;4.11;90.83;96623.34;4872436;29;20208;-65
2024/01/03 06:14:50;;;;;;;10.80;7.73;;;;;;;3.92;91.53;96624.72;4872395;29;20201;-66
2024/01/03 06:17:18;;;;;;;11.57;7.17;;;;;;;3.96;91.50;96625.47;4872956;29;20562;-67
2024/01/03 06:19:45;;;;;;;9.87;6.80;;;;;;;3.96;91.54;96621.19;4871788;29;20661;-67
2024/01/03 06:22:21;;;;;;;12.50;9.20;;;;;;;4.11;91.27;96614.81;4872846;29;20276;-68
2024/01/03 06:24:49;;;;;;;17.20;10.87;;;;;;;4.18;92.01;96621.47;4871066;29;20215;-67
2024/01/03 06:27:16;;;;;;;27.60;16.77;;;;;;;4.19;90.84;96607.75;4873193;29;20209;-67
2024/01/03 06:29:43;;;;;;;21.87;14.43;;;;;;;4.29;90.60;96611.75;4872454;29;20223;-67
2024/01/03 06:32:12;;;;;;;20.03;13.30;;;;;;;4.33;90.56;96633.84;4871996;29;20912;-65
2024/01/03 06:34:39;;;;;;;22.37;14.37;;;;;;;4.04;90.60;96580.00;4884794;29;20277;-64
2024/01/03 06:37:06;;;;;;;22.07;13.10;;;;;;;4.54;89.88;96624.69;4870561;29;20205;-64
2024/01/03 06:39:33;;;;;;;19.70;12.93;;;;;;;4.55;89.98;96636.66;4872856;29;20211;-64
2024/01/03 06:42:00;;;;;;;20.83;13.57;;;;;;;4.42;89.29;96590.00;4872282;29;20205;-64
2024/01/03 06:44:28;;;;;;;25.07;15.10;;;;;;;4.68;88.98;96633.69;4872177;29;20231;-64
2024/01/03 06:46:55;;;;;;;26.90;16.13;;;;;;;4.78;88.35;96642.78;4872137;29;20292;-66
2024/01/03 06:49:25;;;;;;;27.33;15.77;;;;;;;4.84;89.29;96640.03;4871768;29;20693;-71
2024/01/03 06:51:52;;;;;;;29.10;17.83;;;;;;;4.75;88.38;96640.31;4872644;29;20200;-69
2024/01/03 06:54:19;;;;;;;26.77;16.97;;;;;;;4.69;87.82;96655.03;4870268;29;20613;-68
2024/01/03 06:56:46;;;;;;;23.60;16.63;;;;;;;4.36;89.28;96605.56;4872422;29;20257;-68
2024/01/03 06:59:14;;;;;;;24.00;15.50;;;;;;;4.67;88.19;96639.69;4870296;29;20663;-66
2024/01/03 07:01:41;;;;;;;27.80;15.57;;;;;;;4.45;88.88;96641.19;4871920;29;20216;-65
2024/01/03 07:04:08;;;;;;;21.50;13.83;;;;;;;4.49;89.32;96634.25;4871736;29;20736;-65
2024/01/03 07:06:35;;;;;;;22.73;14.47;;;;;;;4.36;88.44;96656.84;4873427;29;20208;-66
2024/01/03 07:09:03;;;;;;;23.10;13.63;;;;;;;4.14;90.26;96660.88;4877313;29;20201;-64
2024/01/03 07:11:30;;;;;;;17.57;12.17;;;;;;;4.09;90.20;96653.31;4873812;29;20647;-65
2024/01/03 07:13:59;;;;;;;15.83;10.27;;;;;;;4.11;90.28;96660.94;4876512;29;20319;-65
2024/01/03 07:16:26;;;;;;;12.87;8.57;;;;;;;3.95;90.87;96660.50;4875086;29;20230;-64
2024/01/03 07:18:53;;;;;;;15.57;8.63;;;;;;;3.85;90.29;96658.22;4874047;29;20279;-62
2024/01/03 07:21:22;;;;;;;15.53;10.53;;;;;;;3.76;90.53;96645.66;4875448;29;20196;-62
2024/01/03 07:23:50;;;;;;;14.77;8.67;;;;;;;3.82;90.66;96638.66;4875290;29;20616;-67
2024/01/03 07:26:17;;;;;;;14.37;9.40;;;;;;;3.78;91.08;96620.84;4875601;29;20210;-63
2024/01/03 07:28:44;;;;;;;15.90;9.67;;;;;;;3.98;90.99;96641.63;4874380;29;20207;-64
2024/01/03 07:31:11;;;;;;;12.97;8.10;;;;;;;3.93;90.02;96633.25;4875323;29;20188;-64
2024/01/03 07:33:40;;;;;;;13.37;9.70;;;;;;;3.99;90.64;96625.41;4874816;29;20683;-67
2024/01/03 07:36:08;;;;;;;15.27;9.30;;;;;;;3.75;90.71;96611.50;4875444;29;20236;-65
2024/01/03 07:38:35;;;;;;;15.53;9.73;;;;;;;4.16;90.56;96627.50;4875128;29;20845;-67
2024/01/03 07:41:02;;;;;;;15.10;9.63;;;;;;;4.13;90.77;96624.16;4888449;29;20597;-69
2024/01/03 07:43:30;;;;;;;15.80;10.47;;;;;;;4.40;89.62;96619.13;4894212;29;20235;-68
2024/01/03 07:45:58;;;;;;;15.03;10.53;;;;;;;4.49;89.22;96599.19;4892879;29;20733;-68
2024/01/03 07:48:25;;;;;;;14.33;9.70;;;;;;;4.41;89.58;96613.94;4895752;29;20237;-68
2024/01/03 07:50:53;;;;;;;15.80;11.37;;;;;;;4.68;89.69;96613.16;4894942;29;20699;-67
2024/01/03 07:53:20;;;;;;;17.50;11.00;;;;;;;4.48;88.50;96600.09;4893323;29;20199;-64
2024/01/03 07:55:48;;;;;;;15.90;11.20;;;;;;;4.42;88.84;96581.47;4892615;29;20579;-67
2024/01/03 07:58:15;;;;;;;15.70;11.17;;;;;;;4.96;88.44;96628.56;4893033;29;20305;-66
2024/01/03 08:00:42;;;;;;;23.53;16.33;;;;;;;5.04;88.47;96625.75;4893178;29;20199;-64
2024/01/03 08:03:09;;;;;;;26.90;16.47;;;;;;;4.97;87.99;96608.00;4892687;29;20222;-69
2024/01/03 08:05:37;;;;;;;18.50;13.80;;;;;;;4.98;87.79;96616.53;4869968;29;20204;-66
2024/01/03 08:08:05;;;;;;;20.00;12.37;;;;;;;5.03;88.19;96629.22;4878112;29;20196;-64
2024/01/03 08:10:32;;;;;;;16.67;11.50;;;;;;;4.78;87.24;96581.22;4864774;29;20260;-64
2024/01/03 08:13:00;;;;;;;17.60;11.43;;;;;;;4.97;87.03;96590.03;4840357;29;20234;-67
2024/01/03 08:15:27;;;;;;;14.57;10.30;;;;;;;5.17;85.91;96621.94;4858159;29;20209;-69
2024/01/03 08:17:54;;;;;;;14.23;10.63;;;;;;;5.06;87.80;96606.03;4868187;29;20285;-65
2024/01/03 08:20:21;;;;;;;15.87;10.73;;;;;;;5.12;86.50;96596.41;4873417;29;20685;-64
2024/01/03 08:22:49;;;;;;;13.83;10.20;;;;;;;5.19;86.05;96610.75;4873635;29;20745;-68
2024/01/03 08:25:22;;;;;;;12.17;8.83;;;;;;;4.91;87.28;96610.75;4874071;29;20208;-65
2024/01/03 08:27:49;;;;;;;14.57;10.17;;;;;;;4.82;88.17;96594.81;4873090;29;20294;-65
2024/01/03 08:30:17;;;;;;;15.70;10.43;;;;;;;4.64;89.15;96600.47;4874621;29;20204;-67
2024/01/03 08:32:44;;;;;;;14.30;10.20;;;;;;;4.67;90.46;96600.38;4872526;29;20213;-62
2024/01/03 08:35:12;;;;;;;16.83;10.67;;;;;;;4.94;89.94;96590.16;4874449;29;20205;-64
2024/01/03 08:37:39;;;;;;;13.90;10.57;;;;;;;5.03;89.90;96583.03;4873223;29;20199;-63
2024/01/03 08:40:08;;;;;;;19.30;12.13;;;;;;;5.21;88.07;96588.44;4857406;29;20595;-63
2024/01/03 08:42:36;;;;;;;16.87;10.80;;;;;;;5.21;88.45;96593.56;4872784;29;20680;-67
2024/01/03 08:45:04;;;;;;;17.47;11.33;;;;;;;5.08;89.17;96591.44;4872318;29;20317;-67
2024/01/03 08:47:33;;;;;;;15.53;10.07;;;;;;;4.94;90.13;96579.88;4868419;29;20253;-67
2024/01/03 08:50:00;;;;;;;20.93;13.07;;;;;;;5.13;90.92;96584.44;4861307;29;20201;-63
2024/01/03 08:52:30;;;;;;;16.83;11.87;;;;;;;5.28;90.16;96569.38;4873973;29;20214;-64
2024/01/03 08:54:59;;;;;;;20.50;12.20;;;;;;;5.04;90.51;96546.22;4873223;29;20232;-64
2024/01/03 08:57:31;;;;;;;22.93;13.20;;;;;;;5.43;90.79;96552.63;4870811;29;20240;-64
2024/01/03 08:59:59;;;;;;;22.57;16.43;;;;;;;5.66;90.39;96571.50;4887584;29;20210;-68
2024/01/03 09:02:26;;;;;;;22.70;15.63;;;;;;;5.85;89.76;96560.63;4872426;29;20210;-64
2024/01/03 09:04:54;;;;;;;32.97;19.27;;;;;;;5.67;88.46;96541.50;4865408;29;20705;-67
2024/01/03 09:07:21;;;;;;;26.57;17.40;;;;;;;5.47;89.23;96492.56;4854577;29;20239;-68
2024/01/03 09:09:50;;;;;;;21.50;15.40;;;;;;;5.70;88.64;96536.28;4863875;29;20684;-68
2024/01/03 09:12:22;;;;;;;19.17;12.73;;;;;;;5.74;88.07;96548.13;4863539;29;20199;-64
2024/01/03 09:14:51;;;;;;;26.53;15.77;;;;;;;5.68;89.29;96538.91;4833072;29;20912;-67
2024/01/03 09:17:19;;;;;;;23.00;16.10;;;;;;;5.81;90.11;96549.59;4865705;29;20704;-72
2024/01/03 09:19:47;;;;;;;27.80;17.37;;;;;;;5.89;89.27;96539.91;4851995;29;20241;-66
2024/01/03 09:22:55;;;;;;;27.17;16.53;;;;;;;5.86;89.52;96547.72;4888657;29;20222;-67
2024/01/03 09:26:17;;;;;;;20.50;14.87;;;;;;;5.87;89.81;96540.84;4891036;29;20197;-64
2024/01/03 09:29:38;;;;;;;22.07;13.90;;;;;;;5.83;90.80;96523.84;4889003;29;20202;-66
2024/01/03 09:32:58;;;;;;;23.30;14.43;;;;;;;5.62;92.07;96518.56;4891056;29;20387;-66
2024/01/03 09:35:54;;;;;;;18.80;11.67;;;;;;;5.65;92.21;96520.16;4890330;29;20990;-66
2024/01/03 09:38:34;;;;;;;18.17;13.07;;;;;;;5.51;92.45;96494.97;4877210;29;20662;-66
2024/01/03 09:41:01;;;;;;;22.27;13.90;;;;;;;5.47;92.36;96503.69;4874740;29;20348;-66
2024/01/03 09:43:31;;;;;;;23.20;14.47;;;;;;;5.59;92.45;96507.53;4891199;29;20665;-69
2024/01/03 09:45:59;;;;;;;21.13;13.80;;;;;;;5.47;93.61;96510.53;4891243;29;20325;-66
2024/01/03 09:48:26;;;;;;;22.83;14.33;;;;;;;5.21;92.46;96442.16;4889045;29;20252;-69
2024/01/03 09:50:53;;;;;;;22.80;14.07;;;;;;;5.76;92.51;96510.38;4890675;29;20208;-67
2024/01/03 09:53:22;;;;;;;16.93;12.40;;;;;;;5.67;92.03;96464.44;4891768;29;20299;-68
2024/01/03 09:55:49;;;;;;;28.50;13.83;;;;;;;5.56;91.88;96446.03;4891379;29;20208;-68
2024/01/03 09:58:17;;;;;;;19.90;13.60;;;;;;;5.95;91.24;96506.28;4892470;29;20233;-67
2024/01/03 10:00:44;;;;;;;15.87;12.13;;;;;;;5.88;90.94;96489.41;4889187;29;20657;-67
2024/01/03 10:03:11;;;;;;;17.33;12.40;;;;;;;5.77;91.09;96507.75;4889722;29;20280;-66
2024/01/03 10:05:39;;;;;;;15.93;11.57;;;;;;;5.77;91.59;96514.59;4889942;29;20276;-66
2024/01/03 10:08:19;;;;;;;18.13;12.40;;;;;;;5.69;92.45;96499.47;4889021;29;20273;-66
2024/01/03 10:10:47;;;;;;;17.63;10.53;;;;;;;5.74;91.35;96507.03;4890592;29;20209;-66
2024/01/03 10:13:17;;;;;;;19.73;11.30;;;;;;;5.79;90.81;96474.28;4888547;29;20254;-67
2024/01/03 10:15:47;;;;;;;23.63;12.27;;;;;;;5.88;91.13;96471.41;4890916;29;20201;-68
2024/01/03 10:18:16;;;;;;;15.03;10.77;;;;;;;6.00;91.24;96467.56;4890202;29;20554;-68
2024/01/03 10:20:46;;;;;;;18.37;11.60;;;;;;;6.11;89.91;96486.00;4890098;29;20207;-68
2024/01/03 10:23:15;;;;;;;21.33;13.03;;;;;;;5.99;89.75;96476.19;4890241;29;20204;-69
2024/01/03 10:25:44;;;;;;;19.97;12.63;;;;;;;5.83;91.04;96482.75;4889586;29;20736;-68
2024/01/03 10:28:15;;;;;;;23.97;14.37;;;;;;;5.71;90.39;96479.69;4890761;29;20673;-68
2024/01/03 10:30:42;;;;;;;20.67;13.80;;;;;;;5.93;90.61;96487.53;4890040;29;20659;-67
2024/01/03 10:33:10;;;;;;;21.27;13.70;;;;;;;5.82;91.04;96484.47;4890670;29;20621;-66
2024/01/03 10:35:43;;;;;;;19.03;12.23;;;;;;;6.13;91.37;96490.19;4889648;29;20216;-64
2024/01/03 10:38:13;;;;;;;17.80;13.00;;;;;;;6.00;90.73;96491.53;4888768;29;20292;-64
2024/01/03 10:40:40;;;;;;;20.73;12.27;;;;;;;5.93;91.33;96469.53;4888862;29;20352;-68
2024/01/03 10:43:10;;;;;;;16.03;11.17;;;;;;;6.02;90.70;96487.16;4889703;29;20209;-66
2024/01/03 10:45:38;;;;;;;16.90;11.30;;;;;;;5.94;91.75;96467.78;4888736;29;20667;-67
2024/01/03 10:48:05;;;;;;;15.63;10.17;;;;;;;5.78;91.35;96440.06;4889385;29;20687;-65
2024/01/03 10:50:34;;;;;;;14.63;10.57;;;;;;;6.15;91.65;96467.84;4890735;29;20327;-66
2024/01/03 10:53:08;;;;;;;13.93;10.63;;;;;;;6.17;91.23;96454.91;4888059;29;20328;-67
2024/01/03 10:55:37;;;;;;;15.13;9.43;;;;;;;6.11;90.08;96450.84;4889584;29;20201;-62
2024/01/03 10:58:13;;;;;;;14.03;9.07;;;;;;;6.18;90.18;96436.84;4889938;29;20244;-65
2024/01/03 11:00:53;;;;;;;17.07;11.10;;;;;;;6.30;90.49;96435.56;4889628;29;20205;-69
2024/01/03 11:04:01;;;;;;;15.03;9.20;;;;;;;6.43;90.41;96429.03;4889666;29;20676;-65
2024/01/03 11:06:45;;;;;;;15.50;10.27;;;;;;;6.44;90.31;96431.56;4890214;29;20245;-67
2024/01/03 11:09:13;;;;;;;19.53;12.33;;;;;;;6.57;89.63;96429.34;4888214;29;20217;-67
2024/01/03 11:11:43;;;;;;;22.20;12.23;;;;;;;6.66;89.50;96418.66;4890826;29;20211;-66
2024/01/03 11:14:19;;;;;;;24.80;14.57;;;;;;;6.84;89.39;96422.25;4889184;29;20593;-67
2024/01/03 11:16:46;;;;;;;22.07;13.70;;;;;;;6.81;89.33;96422.34;4889028;29;20202;-66
2024/01/03 11:19:14;;;;;;;22.00;13.13;;;;;;;6.77;89.20;96379.66;4890030;29;20202;-63
2024/01/03 11:21:43;;;;;;;21.63;12.33;;;;;;;6.95;88.31;96412.31;4890016;29;20194;-64
2024/01/03 11:24:19;;;;;;;26.93;16.63;;;;;;;7.07;87.82;96402.34;4890192;29;20231;-65
2024/01/03 11:26:55;;;;;;;22.00;14.30;;;;;;;7.13;88.23;96409.81;4872602;29;20596;-65
2024/01/03 11:29:35;;;;;;;18.40;12.33;;;;;;;6.98;88.82;96394.19;4890417;29;20201;-67
2024/01/03 11:32:05;;;;;;;17.60;11.10;;;;;;;7.04;88.03;96399.94;4889342;29;20649;-64
2024/01/03 11:34:45;;;;;;;12.67;9.70;;;;;;;6.99;87.89;96385.56;4889392;29;20204;-67
2024/01/03 11:37:18;;;;;;;14.97;9.90;;;;;;;6.90;89.33;96375.69;4890406;29;20210;-65
2024/01/03 11:39:51;;;;;;;16.87;10.37;;;;;;;6.91;89.49;96378.16;4903281;29;20208;-66